< < Back
Terminal Aerodrome Forecast


Current Version              Previous Versions:   1  2  3  4  5  6  7  8  9  

Terminal Aerodrome Forecast

878
FTUS42 KCHS 020500
TAFCHS
TAF
KCHS 020535Z 0206/0306 VRB03KT P6SM SCT300
      TEMPO 0210/0212 5SM BR
     FM021700 13007KT P6SM FEW045
     FM030000 15003KT P6SM FEW250=



Latest METAR

340
SAUS80 KWBC 021200 CCA
MTRCHS
METAR KCHS 021156Z 00000KT 6SM BR FEW250 19/17 A3008 RMK AO2 SLP185
T01890172 10189 20172 53013


USA.gov is the U.S. government's official web portal to all federal, state and local government web resources and services.